createdAt,value
2023-08-04T00:00:47.764Z,0
2023-08-04T00:01:48.067Z,0
2023-08-04T00:02:47.788Z,0
2023-08-04T00:03:47.802Z,0
2023-08-04T00:04:47.796Z,0
2023-08-04T00:05:47.761Z,0
2023-08-04T00:06:47.777Z,0
2023-08-04T00:07:47.772Z,0
2023-08-04T00:08:47.770Z,0
2023-08-04T00:09:47.777Z,0
2023-08-04T00:10:47.767Z,0
2023-08-04T00:11:48.104Z,0
2023-08-04T00:12:47.773Z,0
2023-08-04T00:13:47.785Z,0
2023-08-04T00:14:47.793Z,0
2023-08-04T00:15:47.755Z,0
2023-08-04T00:16:47.776Z,0
2023-08-04T00:17:47.830Z,0
2023-08-04T00:18:47.764Z,0
2023-08-04T00:19:47.773Z,0
2023-08-04T00:20:47.756Z,0
2023-08-04T00:21:47.982Z,0
2023-08-04T00:22:47.770Z,0
2023-08-04T00:23:47.772Z,0
2023-08-04T00:24:47.775Z,0
2023-08-04T00:25:47.764Z,0
2023-08-04T00:26:47.777Z,0
2023-08-04T00:27:47.774Z,0
2023-08-04T00:28:47.776Z,0
2023-08-04T00:29:47.773Z,0
2023-08-04T00:30:47.767Z,0
2023-08-04T00:31:48.076Z,0
2023-08-04T00:32:47.831Z,0
2023-08-04T00:33:47.766Z,0
2023-08-04T00:34:47.894Z,0
2023-08-04T00:35:47.765Z,0
2023-08-04T00:36:47.781Z,0
2023-08-04T00:37:47.766Z,0
2023-08-04T00:38:47.774Z,0
2023-08-04T00:39:47.784Z,0
2023-08-04T00:40:47.753Z,0
2023-08-04T00:41:48.002Z,0
2023-08-04T00:42:47.769Z,0
2023-08-04T00:43:47.769Z,0
2023-08-04T00:44:47.784Z,0
2023-08-04T00:45:47.805Z,0
2023-08-04T00:46:47.774Z,0
2023-08-04T00:47:47.788Z,0
2023-08-04T00:48:47.764Z,0
2023-08-04T00:49:47.770Z,0
2023-08-04T00:50:47.771Z,0
2023-08-04T00:51:48.188Z,0
2023-08-04T00:52:47.770Z,0
2023-08-04T00:53:47.767Z,0
2023-08-04T00:54:47.778Z,0
2023-08-04T00:55:47.770Z,0
2023-08-04T00:56:47.769Z,0
2023-08-04T00:57:47.776Z,0
2023-08-04T00:58:47.765Z,0
2023-08-04T00:59:47.775Z,0
2023-08-04T01:00:47.769Z,0
2023-08-04T01:01:47.960Z,0
2023-08-04T01:02:47.868Z,0
2023-08-04T01:03:47.777Z,0
2023-08-04T01:04:47.787Z,0
2023-08-04T01:05:47.767Z,0
2023-08-04T01:06:47.774Z,0
2023-08-04T01:07:47.771Z,0
2023-08-04T01:08:47.775Z,0
2023-08-04T01:09:47.779Z,0
2023-08-04T01:10:47.776Z,0
2023-08-04T01:11:48.008Z,0
2023-08-04T01:12:47.773Z,0
2023-08-04T01:13:47.772Z,0
2023-08-04T01:14:47.795Z,0
2023-08-04T01:15:47.812Z,0
2023-08-04T01:16:47.786Z,0
2023-08-04T01:17:47.837Z,0
2023-08-04T01:18:47.774Z,0
2023-08-04T01:19:47.783Z,0
2023-08-04T01:20:47.775Z,0
2023-08-04T01:21:48.008Z,0
2023-08-04T01:22:47.774Z,0
2023-08-04T01:23:47.765Z,0
2023-08-04T01:24:47.799Z,0
2023-08-04T01:25:47.777Z,0
2023-08-04T01:26:47.761Z,0
2023-08-04T01:27:47.788Z,0
2023-08-04T01:28:47.764Z,0
2023-08-04T01:29:47.779Z,0
2023-08-04T01:30:47.773Z,0
2023-08-04T01:31:47.975Z,0
2023-08-04T01:32:47.855Z,0
2023-08-04T01:33:47.780Z,0
2023-08-04T01:34:47.793Z,0
2023-08-04T01:35:47.772Z,0
2023-08-04T01:36:47.769Z,0
2023-08-04T01:37:47.785Z,0
2023-08-04T01:38:47.768Z,0
2023-08-04T01:39:47.777Z,0
2023-08-04T01:40:47.773Z,0
2023-08-04T01:41:47.988Z,0
2023-08-04T01:42:47.773Z,0
2023-08-04T01:43:47.759Z,0
2023-08-04T01:44:47.786Z,0
2023-08-04T01:45:47.799Z,0
2023-08-04T01:46:47.780Z,0
2023-08-04T01:47:47.834Z,0
2023-08-04T01:48:47.773Z,0
2023-08-04T01:49:47.794Z,0
2023-08-04T01:50:47.766Z,0
2023-08-04T01:51:48.144Z,0
2023-08-04T01:52:47.792Z,0
2023-08-04T01:53:47.766Z,0
2023-08-04T01:54:47.785Z,0
2023-08-04T01:55:47.773Z,0
2023-08-04T01:56:47.768Z,0
2023-08-04T01:57:47.774Z,0
2023-08-04T01:58:47.775Z,0
2023-08-04T02:03:47.775Z,0
2023-08-04T02:04:47.774Z,0
2023-08-04T02:05:47.788Z,0
2023-08-04T02:06:47.769Z,0
2023-08-04T02:07:47.773Z,0
2023-08-04T02:08:47.777Z,0
2023-08-04T02:09:47.777Z,0
2023-08-04T02:10:47.762Z,0
2023-08-04T02:11:48.005Z,0
2023-08-04T02:12:47.779Z,0
2023-08-04T02:13:47.772Z,0
2023-08-04T02:14:47.833Z,0
2023-08-04T02:15:47.810Z,0
2023-08-04T02:16:47.774Z,0
2023-08-04T02:17:47.799Z,0
2023-08-04T02:18:47.785Z,0
2023-08-04T02:19:47.779Z,0
2023-08-04T02:20:47.772Z,0
2023-08-04T02:21:47.961Z,0
2023-08-04T02:22:47.770Z,0
2023-08-04T02:23:47.760Z,0
2023-08-04T02:24:47.787Z,0
2023-08-04T02:25:47.760Z,0
2023-08-04T02:26:47.800Z,0
2023-08-04T02:27:47.770Z,0
2023-08-04T02:28:47.770Z,0
2023-08-04T02:29:47.780Z,0
2023-08-04T02:30:49.135Z,0
2023-08-04T02:31:48.088Z,0
2023-08-04T02:32:48.724Z,0
2023-08-04T02:33:47.845Z,0
2023-08-04T02:34:47.784Z,0
2023-08-04T02:35:47.774Z,0
2023-08-04T02:36:47.754Z,0
2023-08-04T02:37:47.780Z,0
2023-08-04T02:38:47.769Z,0
2023-08-04T02:39:47.780Z,0
2023-08-04T02:40:47.775Z,0
2023-08-04T02:41:47.960Z,0
2023-08-04T02:42:47.769Z,0
2023-08-04T02:43:47.765Z,0
2023-08-04T02:44:47.797Z,0
2023-08-04T02:45:47.760Z,0
2023-08-04T02:46:47.789Z,0
2023-08-04T02:47:47.785Z,0
2023-08-04T02:48:47.783Z,0
2023-08-04T02:49:47.792Z,0
2023-08-04T02:50:47.760Z,0
2023-08-04T02:51:48.036Z,0
2023-08-04T02:52:47.769Z,0
2023-08-04T02:53:47.771Z,0
2023-08-04T02:54:47.775Z,0
2023-08-04T02:55:47.772Z,0
2023-08-04T02:56:47.786Z,0
2023-08-04T02:57:47.774Z,0
2023-08-04T02:58:47.792Z,0
2023-08-04T02:59:47.784Z,0
2023-08-04T03:00:47.806Z,0
2023-08-04T03:01:48.019Z,0
2023-08-04T03:02:47.853Z,1
2023-08-04T03:03:47.788Z,1
2023-08-04T03:04:47.788Z,1
2023-08-04T03:05:47.765Z,3
2023-08-04T03:06:47.763Z,3
2023-08-04T03:07:47.772Z,5
2023-08-04T03:08:47.774Z,7
2023-08-04T03:09:47.779Z,9
2023-08-04T03:10:47.768Z,11
2023-08-04T03:11:47.991Z,12
2023-08-04T03:12:47.782Z,14
2023-08-04T03:13:47.772Z,16
2023-08-04T03:14:47.810Z,16
2023-08-04T03:15:47.774Z,20
2023-08-04T03:16:47.793Z,22
2023-08-04T03:17:47.816Z,23
2023-08-04T03:18:47.792Z,27
2023-08-04T03:19:47.776Z,31
2023-08-04T03:20:47.759Z,33
2023-08-04T03:21:47.899Z,38
2023-08-04T03:22:47.757Z,42
2023-08-04T03:23:47.766Z,46
2023-08-04T03:24:47.785Z,53
2023-08-04T03:25:47.769Z,57
2023-08-04T03:26:47.765Z,62
2023-08-04T03:27:47.764Z,68
2023-08-04T03:28:47.772Z,77
2023-08-04T03:29:47.779Z,82
2023-08-04T03:30:47.766Z,90
2023-08-04T03:31:53.151Z,101
2023-08-04T03:32:52.103Z,110
2023-08-04T03:33:52.047Z,123
2023-08-04T03:34:52.040Z,134
2023-08-04T03:35:52.058Z,145
2023-08-04T03:36:52.033Z,154
2023-08-04T03:37:52.050Z,164
2023-08-04T03:38:52.088Z,164
2023-08-04T03:39:52.041Z,182
2023-08-04T03:40:52.042Z,195
2023-08-04T03:41:52.034Z,206
2023-08-04T03:42:52.033Z,213
2023-08-04T03:43:52.051Z,223
2023-08-04T03:44:52.042Z,230
2023-08-04T03:45:52.040Z,235
2023-08-04T03:46:52.034Z,243
2023-08-04T03:47:52.077Z,254
2023-08-04T03:48:52.042Z,254
2023-08-04T03:49:52.037Z,269
2023-08-04T03:50:52.036Z,280
2023-08-04T03:51:52.026Z,293
2023-08-04T03:52:52.030Z,309
2023-08-04T03:53:52.032Z,320
2023-08-04T03:54:52.040Z,331
2023-08-04T03:55:52.032Z,344
2023-08-04T03:56:52.037Z,353
2023-08-04T03:57:52.040Z,366
2023-08-04T03:58:52.354Z,387
2023-08-04T03:59:52.031Z,405
2023-08-04T04:00:52.033Z,422
2023-08-04T04:01:52.137Z,431
2023-08-04T04:02:52.101Z,444
2023-08-04T04:03:52.042Z,451
2023-08-04T04:04:52.063Z,466
2023-08-04T04:05:52.029Z,486
2023-08-04T04:06:52.033Z,519
2023-08-04T04:07:52.022Z,552
2023-08-04T04:08:52.030Z,564
2023-08-04T04:09:52.036Z,580
2023-08-04T04:10:52.033Z,602
2023-08-04T04:11:52.040Z,632
2023-08-04T04:12:52.020Z,665
2023-08-04T04:13:52.021Z,689
2023-08-04T04:14:52.063Z,711
2023-08-04T04:15:52.048Z,740
2023-08-04T04:16:52.117Z,772
2023-08-04T04:17:52.074Z,801
2023-08-04T04:18:52.044Z,822
2023-08-04T04:19:52.029Z,846
2023-08-04T04:20:52.019Z,879
2023-08-04T04:21:52.027Z,916
2023-08-04T04:22:52.023Z,956
2023-08-04T04:23:52.032Z,1008
2023-08-04T04:24:52.035Z,1080
2023-08-04T04:25:52.051Z,1164
2023-08-04T04:26:52.033Z,1207
2023-08-04T04:27:52.024Z,1249
2023-08-04T04:28:52.033Z,1292
2023-08-04T04:29:52.027Z,1316
2023-08-04T04:30:52.076Z,1343
2023-08-04T04:31:52.017Z,1354
2023-08-04T04:32:52.054Z,1362
2023-08-04T04:33:52.046Z,1386
2023-08-04T04:34:52.046Z,1380
2023-08-04T04:35:52.018Z,1367
2023-08-04T04:36:52.027Z,1434
2023-08-04T04:37:52.027Z,1450
2023-08-04T04:38:52.022Z,1498
2023-08-04T04:39:52.033Z,1550
2023-08-04T04:40:52.033Z,1594
2023-08-04T04:41:52.032Z,1636
2023-08-04T04:42:52.028Z,1634
2023-08-04T04:43:52.022Z,1703
2023-08-04T04:44:52.037Z,1714
2023-08-04T04:45:52.095Z,1719
2023-08-04T04:46:52.037Z,1695
2023-08-04T04:47:52.099Z,1677
2023-08-04T04:48:52.046Z,1677
2023-08-04T04:49:52.036Z,1614
2023-08-04T04:50:52.030Z,1738
2023-08-04T04:51:52.030Z,1848
2023-08-04T04:52:52.025Z,2018
2023-08-04T04:53:52.033Z,2106
2023-08-04T04:54:52.035Z,2257
2023-08-04T04:55:52.015Z,2366
2023-08-04T04:56:52.022Z,2482
2023-08-04T04:57:52.023Z,2565
2023-08-04T04:58:52.033Z,2667
2023-08-04T04:59:52.034Z,2739
2023-08-04T05:00:52.037Z,2764
2023-08-04T05:01:52.271Z,2659
2023-08-04T05:02:52.057Z,2534
2023-08-04T05:03:52.065Z,2469
2023-08-04T05:04:52.033Z,2396
2023-08-04T05:05:52.021Z,2493
2023-08-04T05:06:52.041Z,2565
2023-08-04T05:07:52.017Z,2656
2023-08-04T05:08:52.022Z,2759
2023-08-04T05:09:52.030Z,2888
2023-08-04T05:10:52.034Z,2962
2023-08-04T05:11:52.024Z,3107
2023-08-04T05:12:52.054Z,3291
2023-08-04T05:13:52.018Z,3373
2023-08-04T05:14:52.034Z,3422
2023-08-04T05:15:52.021Z,3502
2023-08-04T05:16:52.022Z,3573
2023-08-04T05:17:52.076Z,3636
2023-08-04T05:18:52.034Z,3653
2023-08-04T05:19:52.042Z,3667
2023-08-04T05:20:52.028Z,3647
2023-08-04T05:21:52.025Z,3601
2023-08-04T05:22:52.025Z,3527
2023-08-04T05:23:52.016Z,3498
2023-08-04T05:25:01.344Z,3454
2023-08-04T05:25:52.020Z,3389
2023-08-04T05:26:52.015Z,3325
2023-08-04T05:27:52.023Z,3247
2023-08-04T05:28:52.029Z,3221
2023-08-04T05:29:52.036Z,3151
2023-08-04T05:30:52.024Z,3059
2023-08-04T05:31:52.057Z,3006
2023-08-04T05:32:52.060Z,2952
2023-08-04T05:33:52.039Z,2923
2023-08-04T05:34:54.231Z,2934
2023-08-04T05:35:52.020Z,2976
2023-08-04T05:36:52.025Z,2950
2023-08-04T05:37:52.024Z,2925
2023-08-04T05:38:52.016Z,2901
2023-08-04T05:39:52.029Z,2904
2023-08-04T05:40:52.018Z,2938
2023-08-04T05:41:52.028Z,2971
2023-08-04T05:42:52.020Z,2976
2023-08-04T05:43:52.024Z,2987
2023-08-04T05:44:52.032Z,3039
2023-08-04T05:45:52.034Z,3227
2023-08-04T05:46:52.026Z,3868
2023-08-04T05:47:52.102Z,4504
2023-08-04T05:48:52.034Z,4504
2023-08-04T05:49:52.034Z,4397
2023-08-04T05:50:52.044Z,4305
2023-08-04T05:51:52.021Z,4145
2023-08-04T05:52:52.026Z,3796
2023-08-04T05:53:52.047Z,3548
2023-08-04T05:54:52.041Z,3338
2023-08-04T05:55:52.024Z,3205
2023-08-04T05:56:52.020Z,3138
2023-08-04T05:57:52.021Z,3105
2023-08-04T05:58:52.216Z,3100
2023-08-04T05:59:52.029Z,3092
2023-08-04T06:00:52.040Z,3083
2023-08-04T06:01:52.341Z,3100
2023-08-04T06:02:52.148Z,3083
2023-08-04T06:03:52.063Z,3103
2023-08-04T06:04:52.034Z,3078
2023-08-04T06:05:52.035Z,3076
2023-08-04T06:06:52.020Z,3225
2023-08-04T06:07:52.023Z,3282
2023-08-04T06:08:52.046Z,3240
2023-08-04T06:09:52.039Z,3332
2023-08-04T06:10:52.024Z,3463
2023-08-04T06:11:52.031Z,3489
2023-08-04T06:12:52.017Z,3393
2023-08-04T06:13:52.044Z,3404
2023-08-04T06:14:52.196Z,3343
2023-08-04T06:15:52.026Z,3334
2023-08-04T06:16:52.029Z,3321
2023-08-04T06:17:52.069Z,3315
2023-08-04T06:18:52.045Z,3444
2023-08-04T06:19:52.031Z,3572
2023-08-04T06:20:52.012Z,3767
2023-08-04T06:21:52.037Z,3865
2023-08-04T06:22:52.015Z,4027
2023-08-04T06:23:52.017Z,4055
2023-08-04T06:24:52.029Z,4051
2023-08-04T06:25:52.027Z,4080
2023-08-04T06:26:52.024Z,4436
2023-08-04T06:27:52.090Z,4888
2023-08-04T06:28:52.032Z,5030
2023-08-04T06:29:52.045Z,5212
2023-08-04T06:30:52.030Z,5254
2023-08-04T06:31:53.268Z,5360
2023-08-04T06:32:52.040Z,5603
2023-08-04T06:33:52.067Z,5551
2023-08-04T06:34:52.038Z,5162
2023-08-04T06:35:52.034Z,4993
2023-08-04T06:36:52.023Z,5511
2023-08-04T06:37:52.020Z,6102
2023-08-04T06:38:52.021Z,6228
2023-08-04T06:39:52.048Z,6112
2023-08-04T06:40:52.032Z,5981
2023-08-04T06:41:52.034Z,5835
2023-08-04T06:42:52.017Z,5841
2023-08-04T06:43:52.022Z,5883
2023-08-04T06:44:52.029Z,5925
2023-08-04T06:45:52.077Z,6360
2023-08-04T06:46:52.055Z,6760
2023-08-04T06:47:52.102Z,7227
2023-08-04T06:48:52.046Z,7227
2023-08-04T06:49:52.036Z,7402
2023-08-04T06:50:52.018Z,7326
2023-08-04T06:51:52.024Z,7129
2023-08-04T06:52:52.024Z,7299
2023-08-04T06:53:52.032Z,7243
2023-08-04T06:54:52.039Z,6543
2023-08-04T06:55:52.019Z,6067
2023-08-04T06:56:52.010Z,6204
2023-08-04T06:57:52.028Z,6180
2023-08-04T06:58:52.017Z,6005
2023-08-04T06:59:52.029Z,5802
2023-08-04T07:00:52.016Z,5588
2023-08-04T07:01:52.291Z,5798
2023-08-04T07:02:52.096Z,5953
2023-08-04T07:03:52.049Z,6086
2023-08-04T07:04:52.031Z,6524
2023-08-04T07:05:52.033Z,6935
2023-08-04T07:06:52.035Z,7251
2023-08-04T07:07:52.015Z,7595
2023-08-04T07:08:52.016Z,7610
2023-08-04T07:09:52.026Z,7107
2023-08-04T07:10:52.021Z,6539
2023-08-04T07:11:52.022Z,6808
2023-08-04T07:12:52.029Z,6760
2023-08-04T07:13:52.012Z,7654
2023-08-04T07:14:52.037Z,8655
2023-08-04T07:15:52.056Z,8128
2023-08-04T07:16:52.021Z,7241
2023-08-04T07:17:52.075Z,10130
2023-08-04T07:18:52.042Z,11280
2023-08-04T07:19:52.036Z,8045
2023-08-04T07:20:52.024Z,9197
2023-08-04T07:21:52.023Z,11147
2023-08-04T07:22:52.018Z,9129
2023-08-04T07:23:52.027Z,10854
2023-08-04T07:24:52.023Z,6830
2023-08-04T07:25:52.022Z,6292
2023-08-04T07:26:52.018Z,6347
2023-08-04T07:27:52.038Z,6449
2023-08-04T07:28:52.018Z,6550
2023-08-04T07:29:52.029Z,6117
2023-08-04T07:30:52.032Z,5876
2023-08-04T07:31:52.018Z,5525
2023-08-04T07:32:52.085Z,5306
2023-08-04T07:33:52.042Z,5223
2023-08-04T07:34:52.030Z,5149
2023-08-04T07:35:52.017Z,5251
2023-08-04T07:36:52.037Z,5424
2023-08-04T07:37:52.022Z,5566
2023-08-04T07:38:52.018Z,5734
2023-08-04T07:39:52.035Z,6117
2023-08-04T07:40:52.021Z,6624
2023-08-04T07:41:52.026Z,7057
2023-08-04T07:42:52.044Z,7474
2023-08-04T07:43:52.036Z,7629
2023-08-04T07:44:52.023Z,7844
2023-08-04T07:45:52.033Z,8099
2023-08-04T07:46:52.127Z,7265
2023-08-04T07:47:52.054Z,6806
2023-08-04T07:48:52.049Z,6806
2023-08-04T07:49:52.038Z,7601
2023-08-04T07:50:52.043Z,8023
2023-08-04T07:51:52.019Z,8318
2023-08-04T07:52:52.028Z,8633
2023-08-04T07:53:52.050Z,9094
2023-08-04T07:54:52.040Z,11398
2023-08-04T07:55:52.023Z,11490
2023-08-04T07:56:52.032Z,9722
2023-08-04T07:57:52.037Z,13763
2023-08-04T07:58:52.040Z,10679
2023-08-04T07:59:52.028Z,13339
2023-08-04T08:00:52.095Z,13621
2023-08-04T08:01:52.023Z,9306
2023-08-04T08:02:52.123Z,11477
2023-08-04T08:03:52.097Z,11750
2023-08-04T08:04:52.030Z,10865
2023-08-04T08:05:52.041Z,14188
2023-08-04T08:06:52.049Z,11621
2023-08-04T08:07:52.027Z,10159
2023-08-04T08:08:52.025Z,10056
2023-08-04T08:09:52.033Z,10371
2023-08-04T08:10:52.022Z,7151
2023-08-04T08:11:52.022Z,7461
2023-08-04T08:12:52.034Z,7378
2023-08-04T08:13:52.030Z,7068
2023-08-04T08:14:52.041Z,6528
2023-08-04T08:15:52.046Z,6272
2023-08-04T08:16:52.104Z,6253
2023-08-04T08:17:52.053Z,6440
2023-08-04T08:18:52.036Z,6950
2023-08-04T08:19:52.025Z,7558
2023-08-04T08:20:52.017Z,9361
2023-08-04T08:21:52.018Z,18854
2023-08-04T08:22:52.019Z,18614
2023-08-04T08:23:52.022Z,12072
2023-08-04T08:24:52.035Z,18524
2023-08-04T08:25:52.024Z,17333
2023-08-04T08:26:52.021Z,18138
2023-08-04T08:27:52.030Z,18002
2023-08-04T08:28:52.029Z,17820
2023-08-04T08:29:52.040Z,17934
2023-08-04T08:30:52.032Z,17785
2023-08-04T08:31:52.022Z,11643
2023-08-04T08:32:52.068Z,10355
2023-08-04T08:33:52.037Z,9074
2023-08-04T08:34:52.044Z,8587
2023-08-04T08:35:52.018Z,7593
2023-08-04T08:36:52.025Z,7186
2023-08-04T08:37:52.024Z,7112
2023-08-04T08:38:52.021Z,6742
2023-08-04T08:39:52.021Z,6559
2023-08-04T08:40:52.034Z,6886
2023-08-04T08:41:52.104Z,7302
2023-08-04T08:42:52.023Z,7544
2023-08-04T08:43:52.023Z,7724
2023-08-04T08:44:52.039Z,7774
2023-08-04T08:45:52.029Z,7857
2023-08-04T08:46:52.015Z,8259
2023-08-04T08:47:52.048Z,8764
2023-08-04T08:48:52.046Z,8764
2023-08-04T08:49:52.042Z,9604
2023-08-04T08:50:52.033Z,9984
2023-08-04T08:51:52.026Z,10279
2023-08-04T08:52:52.020Z,10677
2023-08-04T08:53:52.028Z,10685
2023-08-04T08:54:52.033Z,11129
2023-08-04T08:55:52.031Z,10428
2023-08-04T08:56:52.025Z,9866
2023-08-04T08:57:52.028Z,9756
2023-08-04T08:58:52.018Z,9448
2023-08-04T08:59:52.033Z,9287
2023-08-04T09:00:52.033Z,9112
2023-08-04T09:01:52.149Z,8950
2023-08-04T09:02:52.056Z,8880
2023-08-04T09:03:52.040Z,8803
2023-08-04T09:04:52.027Z,8701
2023-08-04T09:05:52.060Z,8504
2023-08-04T09:06:52.028Z,8539
2023-08-04T09:07:52.024Z,8235
2023-08-04T09:08:52.018Z,8005
2023-08-04T09:09:52.090Z,7568
2023-08-04T09:10:52.020Z,7339
2023-08-04T09:11:52.017Z,7195
2023-08-04T09:12:52.026Z,6939
2023-08-04T09:13:52.024Z,6530
2023-08-04T09:14:52.035Z,6025
2023-08-04T09:15:52.023Z,5632
2023-08-04T09:16:52.026Z,5258
2023-08-04T09:17:52.066Z,4799
2023-08-04T09:18:52.039Z,4423
2023-08-04T09:19:52.019Z,4110
2023-08-04T09:20:52.008Z,4032
2023-08-04T09:21:52.017Z,4095
2023-08-04T09:22:52.021Z,4353
2023-08-04T09:23:52.018Z,4661
2023-08-04T09:24:52.026Z,4952
2023-08-04T09:25:52.024Z,5183
2023-08-04T09:26:52.020Z,5505
2023-08-04T09:27:52.032Z,5859
2023-08-04T09:28:52.017Z,6132
2023-08-04T09:29:52.033Z,6324
2023-08-04T09:30:52.005Z,6580
2023-08-04T09:31:52.231Z,6685
2023-08-04T09:32:52.084Z,6467
2023-08-04T09:33:52.030Z,6029
2023-08-04T09:34:52.030Z,5776
2023-08-04T09:35:52.016Z,5813
2023-08-04T09:36:52.016Z,6228
2023-08-04T09:37:52.008Z,7044
2023-08-04T09:38:52.029Z,7781
2023-08-04T09:39:52.018Z,8355
2023-08-04T09:40:52.033Z,9350
2023-08-04T09:41:52.248Z,8921
2023-08-04T09:42:52.023Z,7302
2023-08-04T09:43:52.012Z,6759
2023-08-04T09:44:52.029Z,6377
2023-08-04T09:45:52.209Z,6351
2023-08-04T09:46:52.077Z,6620
2023-08-04T09:47:52.034Z,6948
2023-08-04T09:48:52.035Z,6948
2023-08-04T09:49:52.050Z,7518
2023-08-04T09:50:52.021Z,7671
2023-08-04T09:51:52.172Z,7100
2023-08-04T09:52:52.035Z,8318
2023-08-04T09:53:52.025Z,8093
2023-08-04T09:54:52.028Z,10266
2023-08-04T09:55:52.041Z,10091
2023-08-04T09:56:52.020Z,9761
2023-08-04T09:57:52.013Z,11003
2023-08-04T09:58:52.046Z,11918
2023-08-04T09:59:52.022Z,12487
2023-08-04T10:00:52.048Z,11757
2023-08-04T10:01:52.535Z,9851
2023-08-04T10:02:52.133Z,10469
2023-08-04T10:03:52.133Z,9098
2023-08-04T10:04:52.078Z,11538
2023-08-04T10:05:52.022Z,17045
2023-08-04T10:06:52.009Z,16701
2023-08-04T10:07:52.064Z,17307
2023-08-04T10:08:52.032Z,17025
2023-08-04T10:09:52.033Z,14314
2023-08-04T10:10:52.065Z,9280
2023-08-04T10:11:52.020Z,8513
2023-08-04T10:12:52.017Z,8058
2023-08-04T10:13:52.091Z,9498
2023-08-04T10:14:52.025Z,11134
2023-08-04T10:15:52.103Z,11724
2023-08-04T10:16:52.141Z,20551
2023-08-04T10:17:52.117Z,14660
2023-08-04T10:18:52.104Z,13503
2023-08-04T10:19:52.041Z,20223
2023-08-04T10:20:52.025Z,12231
2023-08-04T10:21:52.022Z,10156
2023-08-04T10:22:52.028Z,9267
2023-08-04T10:23:52.023Z,8828
2023-08-04T10:24:52.025Z,8985
2023-08-04T10:25:52.031Z,9389
2023-08-04T10:26:52.043Z,11007
2023-08-04T10:27:52.037Z,15401
2023-08-04T10:28:52.098Z,15901
2023-08-04T10:29:52.021Z,15128
2023-08-04T10:30:52.024Z,15810
2023-08-04T10:31:52.461Z,15368
2023-08-04T10:32:52.116Z,16776
2023-08-04T10:33:52.038Z,17643
2023-08-04T10:34:52.079Z,19425
2023-08-04T10:35:52.020Z,19897
2023-08-04T10:36:52.023Z,17219
2023-08-04T10:37:52.127Z,18072
2023-08-04T10:38:52.060Z,18225
2023-08-04T10:39:52.022Z,16271
2023-08-04T10:40:52.043Z,16610
2023-08-04T10:41:52.021Z,18883
2023-08-04T10:42:52.022Z,19602
2023-08-04T10:43:52.079Z,17114
2023-08-04T10:44:52.026Z,19934
2023-08-04T10:45:52.029Z,19947
2023-08-04T10:46:52.094Z,17727
2023-08-04T10:48:10.254Z,19571
2023-08-04T10:48:52.096Z,19571
2023-08-04T10:49:52.086Z,19655
2023-08-04T10:50:52.092Z,16454
2023-08-04T10:51:52.016Z,16990
2023-08-04T10:52:52.066Z,11715
2023-08-04T10:53:52.013Z,11392
2023-08-04T10:54:52.015Z,10950
2023-08-04T10:55:52.061Z,17283
2023-08-04T10:56:52.025Z,18391
2023-08-04T10:57:52.031Z,16780
2023-08-04T10:58:52.068Z,16835
2023-08-04T10:59:52.020Z,16533
2023-08-04T11:00:52.038Z,16811
2023-08-04T11:01:52.309Z,10874
2023-08-04T11:02:52.044Z,10849
2023-08-04T11:03:52.037Z,15138
2023-08-04T11:04:52.106Z,10342
2023-08-04T11:05:52.129Z,10041
2023-08-04T11:06:52.021Z,11214
2023-08-04T11:07:52.052Z,20199
2023-08-04T11:08:52.034Z,19987
2023-08-04T11:09:52.017Z,18511
2023-08-04T11:10:52.172Z,14120
2023-08-04T11:11:52.020Z,19112
2023-08-04T11:12:52.017Z,18868
2023-08-04T11:13:52.093Z,18260
2023-08-04T11:14:52.037Z,14078
2023-08-04T11:15:52.045Z,17641
2023-08-04T11:16:52.138Z,19648
2023-08-04T11:17:52.198Z,19615
2023-08-04T11:18:52.048Z,19036
2023-08-04T11:19:52.116Z,19290
2023-08-04T11:20:52.013Z,16695
2023-08-04T11:21:52.036Z,14760
2023-08-04T11:22:52.043Z,18203
2023-08-04T11:23:52.033Z,17709
2023-08-04T11:24:52.018Z,17556
2023-08-04T11:25:52.080Z,17283
2023-08-04T11:26:52.028Z,16983
2023-08-04T11:27:52.032Z,17377
2023-08-04T11:28:52.078Z,17794
2023-08-04T11:29:52.023Z,18872
2023-08-04T11:30:52.031Z,18297
2023-08-04T11:31:52.364Z,18655
2023-08-04T11:32:52.050Z,19353
2023-08-04T11:33:52.044Z,19231
2023-08-04T11:34:54.280Z,18935
2023-08-04T11:35:52.026Z,18472
2023-08-04T11:36:52.025Z,19414
2023-08-04T11:37:52.122Z,16247
2023-08-04T11:38:52.036Z,10329
2023-08-04T11:39:52.044Z,14734
2023-08-04T11:40:52.033Z,19211
2023-08-04T11:41:52.019Z,19512
2023-08-04T11:42:52.062Z,19353
2023-08-04T11:43:52.081Z,19854
2023-08-04T11:44:52.033Z,19718
2023-08-04T11:45:52.020Z,19707
2023-08-04T11:46:52.112Z,20041
2023-08-04T11:47:52.114Z,20096
2023-08-04T11:48:52.041Z,20096
2023-08-04T11:49:52.052Z,20597
2023-08-04T11:50:52.031Z,20418
2023-08-04T11:51:52.017Z,21222
2023-08-04T11:52:52.070Z,11073
2023-08-04T11:53:52.042Z,10334
2023-08-04T11:54:52.031Z,10371
2023-08-04T11:55:52.058Z,9509
2023-08-04T11:56:52.034Z,8755
2023-08-04T11:57:52.112Z,8998
2023-08-04T11:58:54.438Z,9669
2023-08-04T11:59:52.045Z,12640
2023-08-04T12:00:52.019Z,13621
2023-08-04T12:02:06.308Z,19134
2023-08-04T12:02:52.177Z,16080
2023-08-04T12:03:52.265Z,20282
2023-08-04T12:04:52.153Z,16105
2023-08-04T12:05:52.227Z,19128
2023-08-04T12:06:52.021Z,15243
2023-08-04T12:07:52.030Z,19746
2023-08-04T12:08:52.033Z,18155
2023-08-04T12:09:52.025Z,15398
2023-08-04T12:10:52.029Z,18782
2023-08-04T12:11:52.024Z,14542
2023-08-04T12:12:52.015Z,19025
2023-08-04T12:13:52.083Z,18339
2023-08-04T12:15:01.136Z,18984
2023-08-04T12:15:52.027Z,11872
2023-08-04T12:16:52.077Z,13189
2023-08-04T12:17:52.166Z,10891
2023-08-04T12:18:52.054Z,11717
2023-08-04T12:19:52.144Z,9708
2023-08-04T12:20:52.021Z,10058
2023-08-04T12:21:52.043Z,9295
2023-08-04T12:22:52.110Z,7158
2023-08-04T12:23:52.189Z,6449
2023-08-04T12:24:52.012Z,6386
2023-08-04T12:25:52.111Z,6172
2023-08-04T12:26:52.019Z,5874
2023-08-04T12:27:52.026Z,5592
2023-08-04T12:28:52.058Z,5551
2023-08-04T12:29:52.017Z,5094
2023-08-04T12:31:08.341Z,4707
2023-08-04T12:31:52.801Z,4300
2023-08-04T12:32:52.070Z,3819
2023-08-04T12:33:52.024Z,3474
2023-08-04T12:34:52.082Z,3194
2023-08-04T12:35:52.020Z,2982
2023-08-04T12:36:52.032Z,2895
2023-08-04T12:37:52.059Z,2917
2023-08-04T12:38:52.035Z,3002
2023-08-04T12:39:53.160Z,3133
2023-08-04T12:40:52.034Z,3350
2023-08-04T12:41:52.382Z,3752
2023-08-04T12:42:52.034Z,4289
2023-08-04T12:43:52.085Z,4760
2023-08-04T12:44:52.045Z,5437
2023-08-04T12:45:53.945Z,5857
2023-08-04T12:46:52.076Z,6950
2023-08-04T12:47:52.174Z,9885
2023-08-04T12:48:52.025Z,9885
2023-08-04T12:49:52.202Z,9085
2023-08-04T12:50:52.022Z,8106
2023-08-04T12:51:52.013Z,7899
2023-08-04T12:52:52.038Z,7758
2023-08-04T12:53:52.034Z,7619
2023-08-04T12:54:52.021Z,7509
2023-08-04T12:55:52.070Z,7289
2023-08-04T12:56:52.035Z,6830
2023-08-04T12:57:52.029Z,7199
2023-08-04T12:58:52.062Z,11584
2023-08-04T12:59:52.022Z,9051
2023-08-04T13:00:52.020Z,8821
2023-08-04T13:01:52.453Z,9201
2023-08-04T13:02:52.145Z,8738
2023-08-04T13:03:53.634Z,8834
2023-08-04T13:04:52.070Z,7627
2023-08-04T13:05:52.021Z,8100
2023-08-04T13:06:52.029Z,8475
2023-08-04T13:07:52.042Z,9356
2023-08-04T13:08:52.065Z,10117
2023-08-04T13:09:52.029Z,7168
2023-08-04T13:10:52.039Z,7682
2023-08-04T13:11:52.019Z,7872
2023-08-04T13:12:52.032Z,8613
2023-08-04T13:13:52.076Z,9851
2023-08-04T13:14:52.024Z,9923
2023-08-04T13:15:52.057Z,10423
2023-08-04T13:16:52.040Z,9079
2023-08-04T13:17:52.113Z,10731
2023-08-04T13:18:52.047Z,9063
2023-08-04T13:19:52.065Z,8495
2023-08-04T13:20:52.024Z,8309
2023-08-04T13:21:52.043Z,7599
2023-08-04T13:22:52.050Z,7424
2023-08-04T13:23:52.044Z,7192
2023-08-04T13:24:52.026Z,7057
2023-08-04T13:25:52.056Z,7337
2023-08-04T13:26:52.032Z,6755
2023-08-04T13:27:52.042Z,6401
2023-08-04T13:28:52.047Z,6086
2023-08-04T13:29:52.026Z,5704
2023-08-04T13:30:52.029Z,5514
2023-08-04T13:31:52.329Z,6110
2023-08-04T13:32:52.177Z,6502
2023-08-04T13:33:52.070Z,5828
2023-08-04T13:34:52.054Z,5282
2023-08-04T13:35:52.027Z,4681
2023-08-04T13:36:52.063Z,3996
2023-08-04T13:37:52.072Z,3660
2023-08-04T13:38:52.050Z,3446